Earlysville, Virginia
Current Conditions -  °F | °C
As of 9:53 PM on Sunday 21 Dec 2014 (Local Time) from KCHO Reporting Station
Overcast Overcast  
Wind Chill: 32°   Ceiling: 4600
Heat Index: 32°   Visibility: 10mi
Dew Point: 25°   Wind: 3mph
Humidity: 75%   Direction: 350°N
Pressure: 30.29"   Gusts: NA
Location:  38.16°N, 78.49°W
Report Text: KCHO 220253Z 35003KT 10SM OVC046 00/M04 A3029 RMK AO2 SLP261 T00001039 52004
Loading
Personal Weather Stations






























Interactive Weather Map New forecast layout! Learn more

10-Day Weather Forecast

Advertisements
Track Severe Weather on mobile